createdAt,value
2018-09-14T00:00:37.774Z,24.63
2018-09-14T00:03:07.425Z,25.27
2018-09-14T00:05:36.277Z,24.00
2018-09-14T00:08:05.325Z,25.82
2018-09-14T00:10:33.737Z,24.50
2018-09-14T00:13:02.013Z,25.10
2018-09-14T00:15:30.277Z,24.70
2018-09-14T00:17:58.961Z,26.70
2018-09-14T00:20:27.932Z,26.37
2018-09-14T00:22:56.193Z,27.87
2018-09-14T00:25:25.069Z,25.88
2018-09-14T00:27:53.301Z,28.25
2018-09-14T00:30:21.602Z,28.83
2018-09-14T00:32:50.382Z,27.55
2018-09-14T00:35:18.663Z,25.90
2018-09-14T00:37:53.102Z,27.82
2018-09-14T00:40:21.747Z,25.48
2018-09-14T00:42:50.018Z,23.70
2018-09-14T00:45:18.586Z,23.10
2018-09-14T00:47:46.862Z,23.27
2018-09-14T00:50:15.128Z,21.48
2018-09-14T00:52:43.717Z,23.18
2018-09-14T00:55:12.511Z,21.17
2018-09-14T00:57:44.046Z,22.02
2018-09-14T01:00:12.286Z,21.60
2018-09-14T01:02:40.542Z,20.32
2018-09-14T01:05:09.333Z,20.40
2018-09-14T01:07:37.581Z,21.05
2018-09-14T01:10:06.348Z,20.77
2018-09-14T01:12:34.917Z,21.87
2018-09-14T01:15:03.198Z,23.85
2018-09-14T01:17:31.525Z,22.00
2018-09-14T01:20:00.099Z,24.47
2018-09-14T01:22:28.848Z,23.00
2018-09-14T01:24:57.114Z,23.05
2018-09-14T01:27:25.987Z,22.85
2018-09-14T01:29:54.256Z,21.77
2018-09-14T01:32:22.508Z,22.02
2018-09-14T01:34:50.842Z,23.57
2018-09-14T01:37:19.246Z,22.20
2018-09-14T01:39:47.956Z,23.30
2018-09-14T01:42:16.872Z,23.67
2018-09-14T01:44:45.127Z,25.15
2018-09-14T01:47:13.361Z,22.13
2018-09-14T01:49:42.126Z,22.90
2018-09-14T01:52:11.021Z,22.13
2018-09-14T01:54:39.278Z,25.02
2018-09-14T01:57:07.998Z,22.90
2018-09-14T01:59:36.989Z,23.80
2018-09-14T02:02:05.379Z,22.27
2018-09-14T02:04:33.817Z,26.12
2018-09-14T02:07:02.073Z,23.98
2018-09-14T02:09:30.378Z,26.75
2018-09-14T02:11:58.663Z,24.30
2018-09-14T02:14:26.914Z,25.25
2018-09-14T02:16:55.245Z,23.55
2018-09-14T02:19:23.512Z,23.05
2018-09-14T02:21:52.526Z,22.77
2018-09-14T02:24:21.059Z,22.73
2018-09-14T02:26:49.802Z,25.57
2018-09-14T02:29:18.774Z,23.35
2018-09-14T02:31:47.021Z,23.47
2018-09-14T02:34:15.822Z,24.70
2018-09-14T02:36:51.778Z,22.95
2018-09-14T02:39:20.798Z,21.95
2018-09-14T02:41:49.407Z,24.12
2018-09-14T02:44:18.330Z,22.98
2018-09-14T02:46:47.234Z,23.85
2018-09-14T02:49:16.371Z,22.27
2018-09-14T02:51:53.573Z,21.27
2018-09-14T02:54:22.361Z,24.00
2018-09-14T02:57:01.355Z,21.50
2018-09-14T02:59:30.645Z,21.33
2018-09-14T03:04:25.216Z,23.07
2018-09-14T03:06:53.703Z,25.50
2018-09-14T03:09:22.716Z,21.87
2018-09-14T03:11:51.430Z,23.38
2018-09-14T03:14:19.744Z,21.93
2018-09-14T03:16:47.993Z,20.80
2018-09-14T03:19:17.126Z,23.35
2018-09-14T03:21:45.400Z,22.32
2018-09-14T03:24:13.666Z,21.97
2018-09-14T03:26:42.301Z,21.65
2018-09-14T03:29:11.346Z,27.05
2018-09-14T03:31:39.608Z,23.65
2018-09-14T03:34:07.854Z,24.67
2018-09-14T03:36:36.167Z,24.45
2018-09-14T03:39:07.128Z,26.40
2018-09-14T03:41:35.915Z,25.85
2018-09-14T03:44:04.241Z,24.72
2018-09-14T03:46:32.618Z,23.80
2018-09-14T03:49:01.514Z,24.32
2018-09-14T03:51:30.597Z,22.87
2018-09-14T03:53:59.332Z,23.92
2018-09-14T03:56:27.969Z,24.02
2018-09-14T03:58:57.232Z,26.12
2018-09-14T04:01:25.938Z,23.57
2018-09-14T04:06:29.221Z,25.75
2018-09-14T04:08:57.915Z,24.32
2018-09-14T04:11:26.764Z,24.60
2018-09-14T04:13:57.516Z,25.45
2018-09-14T04:16:26.414Z,26.20
2018-09-14T04:18:59.873Z,25.17
2018-09-14T04:21:34.235Z,26.10
2018-09-14T04:24:03.308Z,25.15
2018-09-14T04:26:32.285Z,24.92
2018-09-14T04:29:01.694Z,27.90
2018-09-14T04:31:36.729Z,26.50
2018-09-14T04:34:05.449Z,27.82
2018-09-14T04:36:39.523Z,28.42
2018-09-14T04:39:11.526Z,27.05
2018-09-14T04:41:40.305Z,26.02
2018-09-14T04:44:09.206Z,26.35
2018-09-14T04:46:38.010Z,27.52
2018-09-14T04:49:07.153Z,26.15
2018-09-14T04:51:36.254Z,26.15
2018-09-14T04:54:05.176Z,25.75
2018-09-14T04:56:33.476Z,26.02
2018-09-14T04:59:01.757Z,26.25
2018-09-14T05:01:30.074Z,29.00
2018-09-14T05:04:04.434Z,31.25
2018-09-14T05:06:32.726Z,30.65
2018-09-14T05:09:01.047Z,28.05
2018-09-14T05:11:29.871Z,29.30
2018-09-14T05:13:58.190Z,30.60
2018-09-14T05:16:34.136Z,26.73
2018-09-14T05:19:02.514Z,32.25
2018-09-14T05:21:31.117Z,27.67
2018-09-14T05:23:59.390Z,27.65
2018-09-14T05:26:28.664Z,27.32
2018-09-14T05:28:57.009Z,31.05
2018-09-14T05:34:04.654Z,27.07
2018-09-14T05:36:33.126Z,29.90
2018-09-14T05:39:02.175Z,27.13
2018-09-14T05:41:30.825Z,29.50
2018-09-14T05:43:59.090Z,28.45
2018-09-14T05:46:27.414Z,27.73
2018-09-14T05:48:55.660Z,28.52
2018-09-14T05:51:24.434Z,28.17
2018-09-14T05:53:53.809Z,28.25
2018-09-14T05:56:22.260Z,32.20
2018-09-14T05:58:50.550Z,26.40
2018-09-14T06:01:18.913Z,28.07
2018-09-14T06:03:47.416Z,28.60
2018-09-14T06:06:16.129Z,27.45
2018-09-14T06:08:44.508Z,27.50
2018-09-14T06:11:13.084Z,26.73
2018-09-14T06:13:41.334Z,25.60
2018-09-14T06:16:09.636Z,26.93
2018-09-14T06:18:38.512Z,25.50
2018-09-14T06:21:07.069Z,28.65
2018-09-14T06:23:35.337Z,32.55
2018-09-14T06:26:04.234Z,28.40
2018-09-14T06:28:33.310Z,25.97
2018-09-14T06:31:05.729Z,26.10
2018-09-14T06:33:34.433Z,26.68
2018-09-14T06:36:02.708Z,27.02
2018-09-14T06:38:31.463Z,30.48
2018-09-14T06:41:00.421Z,28.90
2018-09-14T06:43:28.699Z,25.65
2018-09-14T06:45:57.798Z,26.97
2018-09-14T06:48:26.270Z,26.70
2018-09-14T06:53:29.878Z,28.25
2018-09-14T06:55:58.155Z,28.23
2018-09-14T06:58:26.685Z,29.23
2018-09-14T07:01:01.950Z,31.17
2018-09-14T07:03:30.502Z,29.12
2018-09-14T07:05:58.991Z,30.02
2018-09-14T07:08:27.552Z,26.70
2018-09-14T07:10:55.862Z,26.77
2018-09-14T07:13:24.114Z,26.93
2018-09-14T07:15:52.393Z,27.48
2018-09-14T07:18:20.706Z,27.02
2018-09-14T07:20:49.066Z,30.02
2018-09-14T07:23:17.358Z,30.70
2018-09-14T07:25:45.741Z,29.35
2018-09-14T07:28:14.312Z,28.85
2018-09-14T07:30:43.183Z,27.73
2018-09-14T07:35:40.821Z,30.70
2018-09-14T07:38:09.978Z,28.85
2018-09-14T07:40:38.463Z,29.10
2018-09-14T07:43:06.730Z,32.53
2018-09-14T07:45:34.980Z,28.55
2018-09-14T07:48:03.574Z,27.20
2018-09-14T07:50:32.590Z,28.62
2018-09-14T07:53:01.427Z,26.37
2018-09-14T07:55:29.876Z,24.00
2018-09-14T07:57:58.090Z,25.70
2018-09-14T08:00:26.917Z,27.25
2018-09-14T08:02:55.169Z,24.90
2018-09-14T08:05:23.659Z,26.97
2018-09-14T08:07:51.939Z,24.52
2018-09-14T08:10:20.234Z,22.77
2018-09-14T08:12:48.804Z,21.48
2018-09-14T08:15:17.103Z,20.57
2018-09-14T08:17:47.558Z,20.25
2018-09-14T08:20:21.634Z,21.12
2018-09-14T08:22:52.169Z,18.35
2018-09-14T08:25:20.866Z,17.17
2018-09-14T08:27:49.406Z,18.00
2018-09-14T08:30:17.680Z,19.50
2018-09-14T08:32:45.958Z,20.68
2018-09-14T08:35:14.442Z,20.60
2018-09-14T08:37:42.741Z,19.75
2018-09-14T08:40:11.613Z,18.73
2018-09-14T08:42:40.265Z,20.72
2018-09-14T08:45:08.527Z,17.77
2018-09-14T08:47:36.838Z,18.55
2018-09-14T08:50:05.494Z,18.57
2018-09-14T08:52:34.189Z,19.65
2018-09-14T08:55:02.475Z,19.40
2018-09-14T08:57:33.771Z,18.30
2018-09-14T09:00:08.198Z,18.77
2018-09-14T09:02:36.450Z,16.27
2018-09-14T09:05:04.789Z,18.52
2018-09-14T09:10:17.794Z,18.75
2018-09-14T09:12:46.078Z,17.60
2018-09-14T09:15:14.383Z,18.62
2018-09-14T09:17:42.691Z,19.73
2018-09-14T09:20:11.222Z,20.27
2018-09-14T09:22:39.497Z,18.60
2018-09-14T09:25:07.786Z,19.85
2018-09-14T09:27:36.447Z,19.30
2018-09-14T09:30:04.838Z,20.70
2018-09-14T09:32:33.082Z,19.32
2018-09-14T09:35:01.374Z,19.65
2018-09-14T09:37:36.954Z,19.27
2018-09-14T09:40:05.774Z,21.00
2018-09-14T09:42:34.467Z,19.50
2018-09-14T09:45:03.907Z,20.15
2018-09-14T09:47:32.226Z,18.23
2018-09-14T09:50:00.476Z,21.52
2018-09-14T09:52:29.213Z,20.08
2018-09-14T09:54:57.450Z,19.07
2018-09-14T09:57:25.719Z,21.82
2018-09-14T09:59:54.635Z,20.65
2018-09-14T10:02:29.378Z,20.23
2018-09-14T10:05:03.260Z,23.27
2018-09-14T10:07:31.529Z,21.20
2018-09-14T10:10:00.246Z,22.90
2018-09-14T10:12:28.511Z,24.25
2018-09-14T10:14:56.838Z,20.45
2018-09-14T10:17:25.917Z,21.07
2018-09-14T10:19:54.194Z,22.48
2018-09-14T10:22:22.465Z,22.15
2018-09-14T10:24:51.002Z,22.07
2018-09-14T10:27:19.952Z,21.68
2018-09-14T10:29:48.590Z,21.82
2018-09-14T10:32:16.850Z,19.15
2018-09-14T10:34:45.115Z,21.33
2018-09-14T10:37:13.382Z,19.12
2018-09-14T10:39:41.990Z,22.00
2018-09-14T10:42:10.978Z,20.50
2018-09-14T10:44:39.241Z,20.02
2018-09-14T10:47:07.557Z,22.45
2018-09-14T10:49:35.825Z,20.12
2018-09-14T10:52:04.521Z,22.05
2018-09-14T10:54:33.154Z,23.07
2018-09-14T10:57:02.082Z,20.43
2018-09-14T10:59:30.342Z,20.02
2018-09-14T11:01:58.605Z,19.75
2018-09-14T11:04:26.897Z,16.50
2018-09-14T11:06:55.204Z,17.60
2018-09-14T11:09:23.694Z,16.45
2018-09-14T11:11:51.946Z,16.55
2018-09-14T11:16:59.399Z,17.35
2018-09-14T11:19:27.675Z,21.23
2018-09-14T11:21:55.933Z,19.80
2018-09-14T11:24:24.213Z,20.57
2018-09-14T11:26:53.166Z,20.55
2018-09-14T11:29:21.425Z,21.25
2018-09-14T11:31:50.353Z,19.27
2018-09-14T11:34:18.610Z,19.60
2018-09-14T11:36:48.367Z,19.17
2018-09-14T11:39:16.976Z,17.87
2018-09-14T11:41:45.208Z,18.17
2018-09-14T11:44:14.021Z,16.35
2018-09-14T11:46:42.274Z,19.67
2018-09-14T11:49:10.545Z,16.90
2018-09-14T11:54:14.348Z,19.12
2018-09-14T11:56:42.535Z,16.85
2018-09-14T11:59:10.830Z,16.67
2018-09-14T12:01:39.464Z,15.28
2018-09-14T12:04:08.044Z,15.43
2018-09-14T12:06:36.360Z,14.30
2018-09-14T12:09:07.018Z,15.75
2018-09-14T12:11:35.322Z,15.75
2018-09-14T12:14:04.471Z,15.30
2018-09-14T12:19:13.348Z,15.43
2018-09-14T12:21:41.598Z,16.35
2018-09-14T12:24:09.873Z,16.30
2018-09-14T12:26:38.594Z,14.95
2018-09-14T12:31:41.598Z,14.50
2018-09-14T12:34:10.019Z,15.53
2018-09-14T12:36:38.282Z,15.48
2018-09-14T12:39:08.344Z,15.80
2018-09-14T12:41:36.961Z,13.20
2018-09-14T12:44:05.238Z,12.75
2018-09-14T12:46:33.711Z,12.37
2018-09-14T12:49:02.053Z,12.75
2018-09-14T12:51:31.157Z,12.53
2018-09-14T12:54:00.027Z,12.68
2018-09-14T12:56:29.406Z,13.05
2018-09-14T12:58:58.269Z,12.43
2018-09-14T13:01:26.533Z,12.03
2018-09-14T13:03:55.616Z,12.33
2018-09-14T13:06:23.905Z,12.90
2018-09-14T13:08:52.190Z,12.93
2018-09-14T13:11:20.560Z,14.35
2018-09-14T13:13:48.845Z,12.82
2018-09-14T13:16:17.198Z,13.68
2018-09-14T13:18:45.450Z,12.88
2018-09-14T13:21:14.197Z,11.73
2018-09-14T13:23:44.069Z,13.03
2018-09-14T13:28:47.162Z,11.95
2018-09-14T13:31:16.281Z,12.40
2018-09-14T13:33:44.619Z,13.48
2018-09-14T13:36:13.279Z,12.25
2018-09-14T13:38:44.816Z,10.95
2018-09-14T13:41:13.724Z,11.60
2018-09-14T13:43:42.012Z,10.70
2018-09-14T13:46:10.541Z,10.50
2018-09-14T13:48:39.547Z,10.53
2018-09-14T13:51:08.276Z,10.60
2018-09-14T13:53:36.909Z,9.80
2018-09-14T13:56:05.254Z,10.58
2018-09-14T13:58:33.862Z,10.25
2018-09-14T14:01:02.149Z,11.00
2018-09-14T14:03:30.432Z,10.30
2018-09-14T14:05:58.749Z,10.58
2018-09-14T14:08:26.986Z,9.63
2018-09-14T14:10:55.365Z,8.68
2018-09-14T14:13:24.375Z,9.50
2018-09-14T14:15:52.670Z,8.95
2018-09-14T14:18:21.013Z,9.60
2018-09-14T14:20:49.594Z,8.43
2018-09-14T14:23:18.411Z,8.93
2018-09-14T14:25:46.696Z,9.65
2018-09-14T14:28:15.982Z,9.73
2018-09-14T14:30:45.014Z,8.85
2018-09-14T14:33:13.338Z,9.85
2018-09-14T14:35:42.046Z,9.23
2018-09-14T14:38:10.624Z,9.63
2018-09-14T14:40:39.301Z,8.55
2018-09-14T14:43:07.585Z,9.83
2018-09-14T14:45:35.958Z,9.95
2018-09-14T14:48:04.245Z,9.83
2018-09-14T14:50:32.567Z,9.08
2018-09-14T14:53:01.493Z,9.25
2018-09-14T14:55:29.771Z,9.53
2018-09-14T14:57:58.663Z,9.00
2018-09-14T15:00:27.014Z,8.48
2018-09-14T15:02:55.293Z,9.23
2018-09-14T15:05:23.918Z,8.75
2018-09-14T15:07:52.176Z,8.58
2018-09-14T15:10:20.490Z,8.80
2018-09-14T15:12:49.050Z,8.55
2018-09-14T15:15:17.310Z,9.30
2018-09-14T15:17:45.568Z,7.85
2018-09-14T15:20:13.846Z,8.63
2018-09-14T15:22:42.101Z,8.58
2018-09-14T15:25:18.270Z,9.13
2018-09-14T15:27:47.418Z,8.43
2018-09-14T15:30:15.918Z,8.65
2018-09-14T15:32:44.202Z,8.50
2018-09-14T15:35:13.245Z,8.45
2018-09-14T15:37:41.494Z,8.53
2018-09-14T15:40:09.965Z,8.30
2018-09-14T15:42:38.582Z,8.25
2018-09-14T15:45:06.919Z,9.03
2018-09-14T15:47:35.207Z,8.20
2018-09-14T15:50:03.484Z,9.38
2018-09-14T15:52:32.833Z,9.53
2018-09-14T15:55:01.638Z,8.65
2018-09-14T15:57:29.958Z,9.45
2018-09-14T15:59:58.737Z,9.93
2018-09-14T16:02:27.018Z,8.90
2018-09-14T16:04:55.279Z,9.70
2018-09-14T16:07:23.806Z,9.50
2018-09-14T16:09:52.062Z,9.35
2018-09-14T16:12:20.391Z,9.35
2018-09-14T16:14:48.650Z,9.68
2018-09-14T16:17:16.906Z,10.10
2018-09-14T16:19:45.573Z,9.88
2018-09-14T16:22:13.834Z,9.95
2018-09-14T16:24:42.546Z,9.75
2018-09-14T16:27:11.342Z,9.43
2018-09-14T16:29:39.594Z,9.68
2018-09-14T16:32:07.873Z,9.68
2018-09-14T16:34:36.138Z,10.08
2018-09-14T16:37:04.413Z,10.75
2018-09-14T16:39:33.050Z,10.20
2018-09-14T16:42:01.838Z,9.48
2018-09-14T16:44:30.400Z,10.82
2018-09-14T16:46:59.325Z,10.08
2018-09-14T16:49:27.578Z,9.45
2018-09-14T16:51:56.836Z,10.28
2018-09-14T16:54:25.090Z,8.93
2018-09-14T16:56:53.326Z,9.50
2018-09-14T16:59:21.852Z,9.60
2018-09-14T17:01:50.214Z,9.68
2018-09-14T17:04:18.475Z,8.78
2018-09-14T17:06:46.778Z,8.93
2018-09-14T17:09:15.037Z,9.35
2018-09-14T17:11:43.424Z,8.50
2018-09-14T17:14:11.770Z,8.50
2018-09-14T17:16:40.629Z,9.43
2018-09-14T17:19:08.918Z,9.83
2018-09-14T17:21:37.257Z,11.05
2018-09-14T17:24:05.969Z,10.35
2018-09-14T17:26:34.920Z,10.23
2018-09-14T17:29:03.181Z,9.43
2018-09-14T17:31:31.917Z,10.53
2018-09-14T17:34:00.550Z,11.15
2018-09-14T17:36:29.038Z,11.35
2018-09-14T17:38:57.809Z,11.18
2018-09-14T17:41:26.051Z,10.68
2018-09-14T17:43:54.301Z,11.73
2018-09-14T17:46:22.835Z,11.10
2018-09-14T17:48:51.082Z,11.18
2018-09-14T17:51:19.816Z,11.70
2018-09-14T17:53:48.266Z,11.95
2018-09-14T17:56:16.532Z,11.63
2018-09-14T17:58:45.314Z,11.50
2018-09-14T18:03:49.330Z,10.43
2018-09-14T18:06:17.597Z,10.82
2018-09-14T18:08:46.224Z,10.15
2018-09-14T18:11:15.260Z,9.85
2018-09-14T18:13:43.516Z,10.32
2018-09-14T18:16:11.870Z,10.25
2018-09-14T18:18:40.131Z,10.35
2018-09-14T18:21:08.469Z,9.83
2018-09-14T18:23:37.113Z,10.25
2018-09-14T18:26:06.465Z,9.45
2018-09-14T18:28:35.243Z,9.90
2018-09-14T18:31:03.503Z,11.10
2018-09-14T18:33:31.756Z,12.60
2018-09-14T18:36:00.485Z,11.30
2018-09-14T18:38:29.142Z,11.55
2018-09-14T18:40:58.043Z,11.08
2018-09-14T18:43:26.377Z,12.50
2018-09-14T18:45:54.613Z,11.48
2018-09-14T18:48:22.933Z,10.82
2018-09-14T18:50:51.421Z,11.53
2018-09-14T18:53:19.869Z,12.75
2018-09-14T18:55:48.138Z,12.78
2018-09-14T18:58:17.049Z,11.10
2018-09-14T19:00:45.253Z,10.95
2018-09-14T19:03:13.521Z,10.60
2018-09-14T19:05:41.787Z,10.35
2018-09-14T19:08:09.986Z,12.43
2018-09-14T19:10:38.314Z,12.35
2018-09-14T19:13:07.026Z,10.70
2018-09-14T19:15:35.317Z,10.88
2018-09-14T19:20:33.262Z,13.05
2018-09-14T19:23:01.895Z,12.18
2018-09-14T19:25:30.168Z,12.37
2018-09-14T19:27:58.951Z,11.15
2018-09-14T19:30:27.234Z,11.65
2018-09-14T19:32:56.055Z,11.08
2018-09-14T19:35:24.394Z,11.00
2018-09-14T19:38:10.826Z,11.18
2018-09-14T19:40:39.510Z,10.80
2018-09-14T19:43:08.562Z,12.20
2018-09-14T19:45:36.854Z,11.97
2018-09-14T19:48:05.194Z,13.43
2018-09-14T19:50:33.895Z,13.05
2018-09-14T19:53:02.534Z,11.88
2018-09-14T19:55:30.993Z,11.95
2018-09-14T19:58:00.370Z,11.00
2018-09-14T20:00:28.682Z,11.97
2018-09-14T20:02:56.935Z,12.55
2018-09-14T20:05:25.521Z,12.70
2018-09-14T20:07:53.774Z,11.22
2018-09-14T20:10:22.037Z,12.13
2018-09-14T20:12:50.327Z,11.43
2018-09-14T20:15:18.597Z,12.23
2018-09-14T20:17:47.277Z,11.22
2018-09-14T20:20:15.549Z,11.80
2018-09-14T20:22:43.853Z,10.80
2018-09-14T20:25:12.396Z,11.55
2018-09-14T20:27:41.120Z,10.78
2018-09-14T20:30:09.970Z,11.80
2018-09-14T20:32:38.706Z,11.38
2018-09-14T20:35:07.725Z,12.13
2018-09-14T20:37:36.015Z,11.53
2018-09-14T20:40:04.602Z,11.78
2018-09-14T20:42:33.438Z,12.65
2018-09-14T20:45:02.713Z,13.18
2018-09-14T20:47:31.266Z,12.10
2018-09-14T20:50:00.010Z,12.18
2018-09-14T20:52:28.682Z,11.78
2018-09-14T20:54:56.958Z,12.18
2018-09-14T20:57:25.238Z,11.45
2018-09-14T20:59:53.831Z,11.08
2018-09-14T21:02:22.089Z,11.70
2018-09-14T21:04:51.951Z,11.90
2018-09-14T21:07:20.223Z,10.95
2018-09-14T21:09:48.504Z,11.68
2018-09-14T21:12:17.078Z,11.95
2018-09-14T21:14:45.572Z,10.75
2018-09-14T21:17:13.857Z,11.33
2018-09-14T21:19:42.106Z,11.93
2018-09-14T21:22:10.770Z,12.40
2018-09-14T21:24:39.040Z,11.68
2018-09-14T21:27:07.847Z,11.85
2018-09-14T21:29:36.147Z,12.25
2018-09-14T21:34:38.997Z,12.50
2018-09-14T21:37:08.090Z,12.33
2018-09-14T21:39:36.690Z,12.37
2018-09-14T21:42:04.989Z,12.05
2018-09-14T21:44:33.271Z,11.28
2018-09-14T21:47:01.648Z,12.05
2018-09-14T21:49:30.355Z,11.00
2018-09-14T21:51:59.020Z,11.48
2018-09-14T21:54:27.478Z,12.40
2018-09-14T21:56:55.761Z,11.95
2018-09-14T21:59:24.371Z,11.65
2018-09-14T22:01:52.655Z,11.63
2018-09-14T22:04:20.911Z,11.95
2018-09-14T22:06:49.189Z,12.20
2018-09-14T22:09:17.425Z,12.20
2018-09-14T22:11:45.892Z,11.22
2018-09-14T22:14:14.218Z,11.85
2018-09-14T22:16:42.487Z,11.40
2018-09-14T22:19:10.746Z,11.65
2018-09-14T22:21:39.657Z,11.43
2018-09-14T22:24:08.689Z,12.13
2018-09-14T22:26:37.485Z,11.70
2018-09-14T22:29:05.794Z,12.18
2018-09-14T22:31:34.154Z,13.30
2018-09-14T22:34:02.642Z,11.43
2018-09-14T22:36:31.060Z,10.80
2018-09-14T22:38:59.890Z,11.73
2018-09-14T22:41:29.245Z,10.95
2018-09-14T22:43:57.529Z,10.50
2018-09-14T22:46:26.223Z,11.15
2018-09-14T22:48:55.101Z,12.07
2018-09-14T22:51:23.929Z,10.78
2018-09-14T22:53:52.570Z,10.68
2018-09-14T22:56:20.820Z,10.85
2018-09-14T22:58:49.498Z,10.45
2018-09-14T23:01:18.949Z,10.60
2018-09-14T23:03:48.254Z,10.30
2018-09-14T23:06:16.889Z,10.32
2018-09-14T23:08:45.839Z,10.80
2018-09-14T23:11:14.559Z,10.85
2018-09-14T23:13:42.817Z,10.95
2018-09-14T23:16:11.091Z,10.80
2018-09-14T23:18:39.360Z,10.13
2018-09-14T23:21:07.611Z,10.30
2018-09-14T23:23:35.923Z,11.08
2018-09-14T23:26:06.678Z,10.38
2018-09-14T23:28:35.403Z,10.82
2018-09-14T23:31:04.134Z,10.45
2018-09-14T23:33:32.843Z,10.55
2018-09-14T23:36:01.118Z,10.30
2018-09-14T23:38:29.733Z,9.60
2018-09-14T23:40:58.461Z,10.20
2018-09-14T23:43:26.710Z,10.60
2018-09-14T23:45:54.986Z,10.65
2018-09-14T23:48:23.277Z,10.85
2018-09-14T23:50:51.841Z,10.72
2018-09-14T23:53:20.585Z,10.50
2018-09-14T23:55:53.225Z,10.63
2018-09-14T23:58:21.894Z,11.10
